Terminal Aerodrome Forecast
Issued by NWS Grand Junction, CO

Home | Current Version | Previous Version | Text Only | Print | Product List | Glossary On
Versions: 1 2 3 4 5 6 7 8 9 10 11 12 13 14 15 16 17 18 19 20 21 22 23 24 25 26 27 28 29 30 31 32 33 34 35 36 37 38
000
FTUS45 KGJT 281120
TAFGJT
TAF
KGJT 281120Z 2812/0112 09004KT P6SM SCT120
     FM281300 13005KT P6SM VCSH SCT050 OVC080
     FM282000 13005KT P6SM -SN SCT025 OVC050
     FM010200 08005KT 4SM -SN BR OVC025
     FM010800 08005KT 1SM -SN BR OVC015=

USA.gov is the U.S. government's official web portal to all federal, state and local government web resources and services.